createdAt,value
2019-05-25T00:01:31.253Z,35.26
2019-05-25T00:04:00.455Z,34.49
2019-05-25T00:06:28.744Z,34.84
2019-05-25T00:08:57.017Z,35.50
2019-05-25T00:11:25.273Z,35.83
2019-05-25T00:13:53.533Z,35.23
2019-05-25T00:16:21.828Z,35.36
2019-05-25T00:18:50.103Z,34.74
2019-05-25T00:21:18.385Z,35.27
2019-05-25T00:23:46.695Z,35.33
2019-05-25T00:26:15.028Z,34.94
2019-05-25T00:28:43.340Z,34.91
2019-05-25T00:31:11.695Z,35.45
2019-05-25T00:33:40.093Z,35.29
2019-05-25T00:36:08.375Z,35.80
2019-05-25T00:38:36.628Z,34.89
2019-05-25T00:41:04.975Z,34.84
2019-05-25T00:43:33.240Z,35.86
2019-05-25T00:46:01.507Z,35.19
2019-05-25T00:48:30.821Z,34.75
2019-05-25T00:50:59.083Z,35.03
2019-05-25T00:53:27.359Z,35.30
2019-05-25T00:55:55.709Z,35.30
2019-05-25T00:58:23.987Z,34.45
2019-05-25T01:00:52.255Z,34.76
2019-05-25T01:03:20.528Z,34.46
2019-05-25T01:05:48.872Z,34.69
2019-05-25T01:08:17.284Z,34.59
2019-05-25T01:10:45.592Z,34.71
2019-05-25T01:13:14.852Z,35.49
2019-05-25T01:15:43.132Z,35.26
2019-05-25T01:18:11.433Z,35.03
2019-05-25T01:20:39.755Z,35.34
2019-05-25T01:23:08.054Z,34.59
2019-05-25T01:25:36.308Z,33.94
2019-05-25T01:28:04.639Z,34.57
2019-05-25T01:30:32.983Z,35.10
2019-05-25T01:33:01.252Z,32.91
2019-05-25T01:35:29.505Z,35.03
2019-05-25T01:37:57.777Z,35.77
2019-05-25T01:40:26.042Z,35.30
2019-05-25T01:42:54.317Z,34.62
2019-05-25T01:45:22.571Z,35.00
2019-05-25T01:47:50.854Z,35.28
2019-05-25T01:50:19.183Z,35.34
2019-05-25T01:52:47.469Z,34.37
2019-05-25T01:57:36.108Z,35.36
2019-05-25T02:00:06.589Z,35.37
2019-05-25T02:02:34.847Z,35.02
2019-05-25T02:05:03.133Z,35.19
2019-05-25T02:07:31.429Z,34.62
2019-05-25T02:10:00.750Z,35.07
2019-05-25T02:12:29.057Z,34.32
2019-05-25T02:14:57.403Z,34.72
2019-05-25T02:17:25.662Z,35.23
2019-05-25T02:19:53.965Z,35.76
2019-05-25T02:22:22.240Z,35.16
2019-05-25T02:24:50.527Z,35.87
2019-05-25T02:27:18.803Z,35.80
2019-05-25T02:29:47.078Z,35.61
2019-05-25T02:32:15.349Z,35.42
2019-05-25T02:34:43.607Z,35.53
2019-05-25T02:37:11.880Z,35.48
2019-05-25T02:39:40.166Z,34.94
2019-05-25T02:42:10.491Z,34.82
2019-05-25T02:44:38.757Z,35.34
2019-05-25T02:47:07.043Z,34.83
2019-05-25T02:49:35.444Z,35.73
2019-05-25T02:52:03.715Z,35.68
2019-05-25T02:54:32.055Z,34.96
2019-05-25T02:57:00.334Z,35.46
2019-05-25T02:59:28.607Z,35.16
2019-05-25T03:01:56.870Z,34.51
2019-05-25T03:04:25.159Z,34.97
2019-05-25T03:06:53.668Z,35.20
2019-05-25T03:09:22.499Z,34.95
2019-05-25T03:11:50.773Z,34.68
2019-05-25T03:14:19.048Z,33.54
2019-05-25T03:16:48.393Z,33.97
2019-05-25T03:19:16.717Z,34.03
2019-05-25T03:21:44.953Z,34.12
2019-05-25T03:24:13.231Z,34.32
2019-05-25T03:26:41.495Z,35.13
2019-05-25T03:29:09.765Z,34.44
2019-05-25T03:31:38.039Z,33.74
2019-05-25T03:34:06.381Z,34.15
2019-05-25T03:36:34.733Z,34.58
2019-05-25T03:39:04.678Z,34.16
2019-05-25T03:41:32.962Z,34.68
2019-05-25T03:44:01.228Z,34.90
2019-05-25T03:46:29.521Z,34.91
2019-05-25T03:48:57.790Z,35.13
2019-05-25T03:51:26.187Z,35.03
2019-05-25T03:53:54.461Z,34.70
2019-05-25T03:56:22.756Z,34.76
2019-05-25T03:58:51.027Z,34.47
2019-05-25T04:01:19.367Z,34.20
2019-05-25T04:03:47.644Z,34.60
2019-05-25T04:06:16.001Z,34.72
2019-05-25T04:08:44.278Z,33.68
2019-05-25T04:11:12.565Z,34.40
2019-05-25T04:13:40.856Z,35.08
2019-05-25T04:16:09.149Z,34.96
2019-05-25T04:18:37.439Z,34.60
2019-05-25T04:21:05.790Z,34.27
2019-05-25T04:23:35.170Z,34.72
2019-05-25T04:26:03.447Z,33.06
2019-05-25T04:28:31.714Z,33.43
2019-05-25T04:30:59.991Z,33.74
2019-05-25T04:33:28.256Z,34.15
2019-05-25T04:35:56.557Z,34.60
2019-05-25T04:38:24.789Z,34.56
2019-05-25T04:40:53.121Z,34.76
2019-05-25T04:43:21.419Z,33.46
2019-05-25T04:45:49.708Z,33.48
2019-05-25T04:48:17.947Z,34.36
2019-05-25T04:50:47.300Z,35.28
2019-05-25T04:53:15.677Z,34.21
2019-05-25T04:55:45.054Z,33.92
2019-05-25T04:58:13.318Z,34.99
2019-05-25T05:00:41.630Z,34.48
2019-05-25T05:03:10.878Z,34.55
2019-05-25T05:05:39.245Z,34.85
2019-05-25T05:08:07.504Z,35.10
2019-05-25T05:10:35.858Z,35.15
2019-05-25T05:13:04.277Z,34.58
2019-05-25T05:15:33.507Z,34.56
2019-05-25T05:18:01.803Z,34.72
2019-05-25T05:20:30.065Z,35.09
2019-05-25T05:22:58.357Z,34.72
2019-05-25T05:25:26.639Z,35.09
2019-05-25T05:27:54.926Z,34.39
2019-05-25T05:30:34.199Z,34.24
2019-05-25T05:33:02.790Z,34.23
2019-05-25T05:35:32.678Z,33.73
2019-05-25T05:38:03.162Z,32.82
2019-05-25T05:40:33.085Z,33.35
2019-05-25T05:43:01.508Z,32.96
2019-05-25T05:45:30.300Z,32.95
2019-05-25T05:48:00.160Z,34.48
2019-05-25T05:50:28.448Z,34.36
2019-05-25T05:52:56.797Z,34.61
2019-05-25T05:55:32.676Z,34.01
2019-05-25T05:58:02.440Z,33.99
2019-05-25T06:00:30.866Z,34.64
2019-05-25T06:02:59.268Z,33.22
2019-05-25T06:05:27.721Z,34.13
2019-05-25T06:07:55.988Z,34.60
2019-05-25T06:10:25.493Z,34.00
2019-05-25T06:12:53.779Z,34.38
2019-05-25T06:15:22.116Z,34.46
2019-05-25T06:17:50.453Z,34.07
2019-05-25T06:20:18.813Z,33.20
2019-05-25T06:22:47.090Z,33.85
2019-05-25T06:25:15.442Z,34.50
2019-05-25T06:27:43.764Z,34.49
2019-05-25T06:30:12.573Z,34.24
2019-05-25T06:32:40.918Z,34.01
2019-05-25T06:35:09.493Z,33.90
2019-05-25T06:37:37.788Z,34.01
2019-05-25T06:40:08.504Z,34.51
2019-05-25T06:42:36.760Z,33.95
2019-05-25T06:45:08.892Z,34.38
2019-05-25T06:47:37.327Z,35.37
2019-05-25T06:50:06.965Z,34.84
2019-05-25T06:52:35.219Z,35.19
2019-05-25T06:55:05.195Z,35.13
2019-05-25T06:57:42.531Z,35.13
2019-05-25T07:00:07.985Z,35.81
2019-05-25T07:02:37.213Z,35.47
2019-05-25T07:05:09.437Z,35.85
2019-05-25T07:07:37.880Z,35.65
2019-05-25T07:10:09.802Z,35.77
2019-05-25T07:12:38.133Z,35.92
2019-05-25T07:15:08.111Z,35.64
2019-05-25T07:17:36.360Z,34.34
2019-05-25T07:20:08.287Z,34.83
2019-05-25T07:22:36.576Z,35.88
2019-05-25T07:25:06.459Z,35.62
2019-05-25T07:27:34.870Z,36.05
2019-05-25T07:30:04.110Z,35.97
2019-05-25T07:32:32.356Z,34.69
2019-05-25T07:35:00.645Z,36.04
2019-05-25T07:37:29.033Z,35.93
2019-05-25T07:39:57.431Z,35.81
2019-05-25T07:42:25.698Z,35.84
2019-05-25T07:44:54.634Z,35.02
2019-05-25T07:47:22.900Z,36.15
2019-05-25T07:49:51.175Z,35.63
2019-05-25T07:52:19.438Z,36.36
2019-05-25T07:54:47.720Z,36.30
2019-05-25T07:57:16.000Z,35.51
2019-05-25T07:59:44.311Z,35.78
2019-05-25T08:02:12.570Z,35.83
2019-05-25T08:04:40.853Z,35.49
2019-05-25T08:07:11.100Z,36.15
2019-05-25T08:09:40.390Z,36.79
2019-05-25T08:12:09.585Z,35.87
2019-05-25T08:14:37.839Z,36.18
2019-05-25T08:17:06.125Z,36.65
2019-05-25T08:19:34.394Z,35.64
2019-05-25T08:22:02.668Z,36.87
2019-05-25T08:24:30.970Z,36.92
2019-05-25T08:27:00.245Z,36.71
2019-05-25T08:29:28.538Z,36.46
2019-05-25T08:31:56.836Z,36.36
2019-05-25T08:34:25.187Z,35.47
2019-05-25T08:36:53.443Z,34.85
2019-05-25T08:39:21.745Z,35.14
2019-05-25T08:41:50.004Z,35.82
2019-05-25T08:44:18.263Z,36.44
2019-05-25T08:46:46.538Z,35.12
2019-05-25T08:49:14.860Z,36.89
2019-05-25T08:51:43.108Z,37.32
2019-05-25T08:54:12.359Z,37.62
2019-05-25T08:56:40.638Z,37.65
2019-05-25T08:59:08.924Z,37.77
2019-05-25T09:01:37.183Z,37.67
2019-05-25T09:04:05.447Z,37.68
2019-05-25T09:06:33.713Z,38.53
2019-05-25T09:09:01.992Z,36.86
2019-05-25T09:11:30.254Z,37.53
2019-05-25T09:13:58.519Z,36.92
2019-05-25T09:16:26.807Z,36.95
2019-05-25T09:18:55.076Z,34.84
2019-05-25T09:21:23.358Z,35.43
2019-05-25T09:23:51.627Z,35.72
2019-05-25T09:26:20.927Z,35.26
2019-05-25T09:29:03.395Z,35.95
2019-05-25T09:31:19.295Z,37.48
2019-05-25T09:33:47.546Z,38.04
2019-05-25T09:36:15.834Z,37.98
2019-05-25T09:38:44.156Z,36.17
2019-05-25T09:41:12.402Z,36.79
2019-05-25T09:43:41.686Z,38.34
2019-05-25T09:46:11.034Z,38.53
2019-05-25T09:48:39.327Z,37.18
2019-05-25T09:51:15.537Z,37.12
2019-05-25T09:53:37.612Z,37.82
2019-05-25T09:56:05.959Z,35.64
2019-05-25T09:58:34.229Z,35.67
2019-05-25T10:01:02.519Z,37.14
2019-05-25T10:03:30.794Z,36.65
2019-05-25T10:06:00.153Z,37.14
2019-05-25T10:08:31.585Z,37.50
2019-05-25T10:11:00.951Z,36.68
2019-05-25T10:13:29.218Z,36.26
2019-05-25T10:15:59.955Z,35.94
2019-05-25T10:18:30.222Z,36.38
2019-05-25T10:20:58.568Z,37.70
2019-05-25T10:23:26.840Z,36.39
2019-05-25T10:25:59.250Z,34.86
2019-05-25T10:28:27.512Z,35.90
2019-05-25T10:30:55.786Z,37.81
2019-05-25T10:33:24.362Z,37.07
2019-05-25T10:35:52.809Z,37.62
2019-05-25T10:38:21.065Z,37.95
2019-05-25T10:40:49.465Z,38.23
2019-05-25T10:43:17.767Z,39.22
2019-05-25T10:45:46.039Z,37.07
2019-05-25T10:48:14.315Z,38.05
2019-05-25T10:50:42.581Z,38.61
2019-05-25T10:53:12.708Z,37.83
2019-05-25T10:55:40.993Z,36.53
2019-05-25T10:58:09.264Z,38.13
2019-05-25T11:00:37.659Z,37.25
2019-05-25T11:03:05.923Z,38.64
2019-05-25T11:05:34.228Z,38.90
2019-05-25T11:08:02.566Z,36.54
2019-05-25T11:10:30.838Z,38.00
2019-05-25T11:12:59.125Z,36.43
2019-05-25T11:15:27.446Z,37.40
2019-05-25T11:17:55.780Z,36.94
2019-05-25T11:20:24.039Z,36.94
2019-05-25T11:22:52.312Z,38.41
2019-05-25T11:25:20.655Z,37.68
2019-05-25T11:27:49.121Z,39.71
2019-05-25T11:30:19.021Z,36.95
2019-05-25T11:32:47.424Z,37.47
2019-05-25T11:35:17.393Z,39.66
2019-05-25T11:37:46.695Z,41.04
2019-05-25T11:40:15.492Z,39.84
2019-05-25T11:42:43.818Z,36.79
2019-05-25T11:45:12.356Z,41.17
2019-05-25T11:47:40.621Z,41.27
2019-05-25T11:50:09.445Z,39.11
2019-05-25T11:52:37.793Z,38.46
2019-05-25T11:55:09.596Z,41.78
2019-05-25T11:57:38.251Z,40.64
2019-05-25T12:00:21.972Z,42.93
2019-05-25T12:02:38.918Z,39.62
2019-05-25T12:05:07.955Z,41.27
2019-05-25T12:07:36.250Z,40.78
2019-05-25T12:10:05.458Z,40.69
2019-05-25T12:12:33.778Z,43.43
2019-05-25T12:15:02.072Z,43.02
2019-05-25T12:17:30.352Z,42.51
2019-05-25T12:19:59.628Z,44.86
2019-05-25T12:22:28.933Z,44.50
2019-05-25T12:24:57.184Z,45.26
2019-05-25T12:27:25.458Z,45.83
2019-05-25T12:29:53.787Z,44.50
2019-05-25T12:32:22.063Z,43.81
2019-05-25T12:34:50.365Z,45.81
2019-05-25T12:37:19.598Z,44.81
2019-05-25T12:39:47.918Z,46.48
2019-05-25T12:42:16.172Z,48.90
2019-05-25T12:44:44.437Z,48.08
2019-05-25T12:47:12.724Z,48.84
2019-05-25T12:49:50.518Z,48.41
2019-05-25T12:52:10.986Z,47.87
2019-05-25T12:54:40.235Z,46.42
2019-05-25T12:57:08.520Z,45.73
2019-05-25T12:59:37.855Z,48.34
2019-05-25T13:02:06.132Z,45.84
2019-05-25T13:04:34.428Z,46.89
2019-05-25T13:07:02.714Z,48.58
2019-05-25T13:09:30.984Z,48.28
2019-05-25T13:11:59.243Z,47.38
2019-05-25T13:14:27.514Z,45.31
2019-05-25T13:16:55.775Z,48.15
2019-05-25T13:19:24.056Z,47.04
2019-05-25T13:21:52.356Z,46.23
2019-05-25T13:24:22.358Z,47.88
2019-05-25T13:26:53.289Z,46.74
2019-05-25T13:29:21.580Z,46.80
2019-05-25T13:31:49.852Z,45.98
2019-05-25T13:34:19.089Z,47.99
2019-05-25T13:36:47.386Z,49.04
2019-05-25T13:39:15.662Z,47.33
2019-05-25T13:41:44.958Z,47.67
2019-05-25T13:44:13.241Z,48.41
2019-05-25T13:46:41.518Z,50.26
2019-05-25T13:49:09.780Z,48.61
2019-05-25T13:51:38.112Z,45.62
2019-05-25T13:54:06.411Z,47.41
2019-05-25T13:56:35.642Z,49.51
2019-05-25T13:59:03.998Z,51.17
2019-05-25T14:01:33.212Z,47.35
2019-05-25T14:04:03.154Z,48.61
2019-05-25T14:06:31.424Z,49.01
2019-05-25T14:08:59.783Z,51.79
2019-05-25T14:11:31.067Z,51.43
2019-05-25T14:13:59.486Z,47.20
2019-05-25T14:16:27.837Z,50.08
2019-05-25T14:18:56.182Z,47.07
2019-05-25T14:21:24.476Z,46.10
2019-05-25T14:23:53.752Z,47.80
2019-05-25T14:26:22.039Z,47.71
2019-05-25T14:28:50.370Z,48.46
2019-05-25T14:31:18.723Z,49.84
2019-05-25T14:33:47.367Z,49.48
2019-05-25T14:36:15.750Z,49.31
2019-05-25T14:38:44.026Z,49.37
2019-05-25T14:41:12.330Z,48.64
2019-05-25T14:43:40.591Z,48.29
2019-05-25T14:46:08.923Z,51.26
2019-05-25T14:48:39.194Z,49.02
2019-05-25T14:51:07.469Z,48.40
2019-05-25T14:53:36.781Z,49.12
2019-05-25T14:56:08.380Z,48.53
2019-05-25T14:58:41.038Z,47.54
2019-05-25T15:01:10.436Z,49.07
2019-05-25T15:03:38.757Z,47.99
2019-05-25T15:06:07.088Z,48.09
2019-05-25T15:08:35.515Z,47.71
2019-05-25T15:11:03.789Z,47.26
2019-05-25T15:13:32.042Z,46.17
2019-05-25T15:16:01.306Z,46.17
2019-05-25T15:18:31.638Z,48.30
2019-05-25T15:20:59.991Z,48.10
2019-05-25T15:23:29.331Z,48.11
2019-05-25T15:25:57.585Z,48.54
2019-05-25T15:28:25.864Z,47.33
2019-05-25T15:30:54.261Z,45.88
2019-05-25T15:33:22.618Z,45.88
2019-05-25T15:35:50.914Z,46.91
2019-05-25T15:38:19.195Z,48.98
2019-05-25T15:40:47.473Z,46.12
2019-05-25T15:43:15.719Z,44.28
2019-05-25T15:45:44.683Z,47.19
2019-05-25T15:48:13.612Z,45.66
2019-05-25T15:50:42.016Z,46.01
2019-05-25T15:53:10.311Z,46.01
2019-05-25T15:55:38.659Z,46.24
2019-05-25T15:58:06.939Z,43.54
2019-05-25T16:00:51.940Z,41.45
2019-05-25T16:03:20.953Z,40.50
2019-05-25T16:05:49.677Z,40.31
2019-05-25T16:08:19.472Z,39.04
2019-05-25T16:10:48.253Z,39.24
2019-05-25T16:13:16.754Z,39.56
2019-05-25T16:15:45.377Z,39.30
2019-05-25T16:18:13.902Z,39.44
2019-05-25T16:20:42.321Z,39.82
2019-05-25T16:23:10.602Z,39.91
2019-05-25T16:25:40.934Z,40.79
2019-05-25T16:28:09.374Z,40.27
2019-05-25T16:30:37.846Z,39.54
2019-05-25T16:33:14.634Z,39.08
2019-05-25T16:35:36.158Z,39.22
2019-05-25T16:38:04.689Z,39.08
2019-05-25T16:40:33.080Z,38.58
2019-05-25T16:43:01.481Z,37.04
2019-05-25T16:45:29.957Z,38.59
2019-05-25T16:47:58.232Z,38.32
2019-05-25T16:50:26.512Z,37.33
2019-05-25T16:52:55.096Z,38.78
2019-05-25T16:55:23.438Z,39.84
2019-05-25T16:57:51.748Z,38.27
2019-05-25T17:00:29.714Z,37.92
2019-05-25T17:03:02.064Z,36.82
2019-05-25T17:05:30.348Z,37.81
2019-05-25T17:07:58.587Z,38.30
2019-05-25T17:10:26.941Z,36.44
2019-05-25T17:12:55.364Z,38.34
2019-05-25T17:15:23.676Z,38.32
2019-05-25T17:17:52.659Z,36.28
2019-05-25T17:20:23.651Z,36.31
2019-05-25T17:22:51.934Z,37.82
2019-05-25T17:25:20.673Z,37.81
2019-05-25T17:27:49.067Z,37.33
2019-05-25T17:30:19.302Z,37.74
2019-05-25T17:32:47.582Z,37.41
2019-05-25T17:35:16.153Z,37.00
2019-05-25T17:37:46.409Z,37.00
2019-05-25T17:40:14.658Z,36.94
2019-05-25T17:42:43.075Z,37.25
2019-05-25T17:45:11.683Z,36.07
2019-05-25T17:47:39.981Z,36.57
2019-05-25T17:50:08.729Z,36.39
2019-05-25T17:52:36.992Z,37.94
2019-05-25T17:55:08.622Z,36.99
2019-05-25T17:57:37.034Z,36.80
2019-05-25T18:00:08.680Z,36.74
2019-05-25T18:02:37.021Z,36.00
2019-05-25T18:05:08.923Z,36.62
2019-05-25T18:07:37.229Z,37.43
2019-05-25T18:10:07.559Z,37.09
2019-05-25T18:12:35.884Z,37.13
2019-05-25T18:15:10.374Z,36.31
2019-05-25T18:17:38.842Z,36.31
2019-05-25T18:20:11.054Z,36.62
2019-05-25T18:22:39.310Z,35.78
2019-05-25T18:25:07.764Z,35.48
2019-05-25T18:27:36.024Z,35.56
2019-05-25T18:30:06.434Z,35.69
2019-05-25T18:32:35.800Z,36.71
2019-05-25T18:35:10.112Z,35.61
2019-05-25T18:37:38.492Z,36.66
2019-05-25T18:40:10.330Z,36.34
2019-05-25T18:42:38.809Z,35.91
2019-05-25T18:45:10.760Z,36.47
2019-05-25T18:47:39.043Z,35.83
2019-05-25T18:50:09.061Z,36.06
2019-05-25T18:52:37.433Z,35.45
2019-05-25T18:55:07.438Z,34.95
2019-05-25T18:57:35.778Z,35.37
2019-05-25T19:00:06.268Z,34.96
2019-05-25T19:02:35.523Z,35.82
2019-05-25T19:05:05.832Z,36.15
2019-05-25T19:07:34.145Z,35.90
2019-05-25T19:10:02.991Z,35.63
2019-05-25T19:12:31.265Z,36.11
2019-05-25T19:14:59.567Z,35.85
2019-05-25T19:17:28.001Z,35.47
2019-05-25T19:19:56.275Z,35.54
2019-05-25T19:22:25.520Z,35.40
2019-05-25T19:24:53.779Z,34.83
2019-05-25T19:27:22.075Z,34.80
2019-05-25T19:29:50.343Z,34.18
2019-05-25T19:32:18.648Z,34.28
2019-05-25T19:34:59.098Z,34.30
2019-05-25T19:37:19.240Z,33.72
2019-05-25T19:39:47.123Z,33.73
2019-05-25T19:42:15.475Z,34.00
2019-05-25T19:44:43.763Z,35.12
2019-05-25T19:47:13.012Z,34.84
2019-05-25T19:49:41.267Z,35.07
2019-05-25T19:52:09.645Z,36.08
2019-05-25T19:54:37.937Z,36.25
2019-05-25T19:57:06.497Z,34.96
2019-05-25T19:59:34.820Z,35.18
2019-05-25T20:02:03.214Z,34.52
2019-05-25T20:04:31.615Z,35.17
2019-05-25T20:07:02.566Z,35.76
2019-05-25T20:09:30.858Z,35.91
2019-05-25T20:11:59.151Z,35.50
2019-05-25T20:14:27.521Z,35.72
2019-05-25T20:16:55.876Z,36.27
2019-05-25T20:19:24.178Z,35.67
2019-05-25T20:21:52.454Z,35.93
2019-05-25T20:24:20.765Z,35.71
2019-05-25T20:26:49.101Z,36.54
2019-05-25T20:29:17.369Z,33.51
2019-05-25T20:31:45.646Z,36.05
2019-05-25T20:34:13.936Z,35.86
2019-05-25T20:36:42.235Z,36.72
2019-05-25T20:39:10.489Z,36.62
2019-05-25T20:41:38.856Z,36.64
2019-05-25T20:44:07.137Z,36.64
2019-05-25T20:46:35.997Z,36.29
2019-05-25T20:49:04.367Z,36.09
2019-05-25T20:51:32.695Z,35.86
2019-05-25T20:54:01.127Z,35.67
2019-05-25T20:56:30.394Z,35.79
2019-05-25T20:58:59.678Z,35.20
2019-05-25T21:01:27.986Z,35.07
2019-05-25T21:03:56.233Z,35.00
2019-05-25T21:06:24.573Z,35.31
2019-05-25T21:08:52.796Z,35.39
2019-05-25T21:11:21.057Z,35.08
2019-05-25T21:13:49.393Z,34.83
2019-05-25T21:16:17.656Z,34.50
2019-05-25T21:18:45.969Z,34.91
2019-05-25T21:21:14.363Z,35.38
2019-05-25T21:23:42.705Z,35.87
2019-05-25T21:26:12.137Z,35.50
2019-05-25T21:28:40.421Z,34.91
2019-05-25T21:31:08.707Z,35.53
2019-05-25T21:33:38.010Z,35.59
2019-05-25T21:36:08.880Z,34.71
2019-05-25T21:38:36.416Z,35.66
2019-05-25T21:41:06.637Z,35.98
2019-05-25T21:43:34.922Z,35.50
2019-05-25T21:46:03.302Z,36.17
2019-05-25T21:48:33.393Z,35.88
2019-05-25T21:51:08.449Z,35.81
2019-05-25T21:53:39.804Z,34.28
2019-05-25T21:56:08.140Z,35.39
2019-05-25T21:58:36.413Z,35.88
2019-05-25T22:01:05.498Z,35.81
2019-05-25T22:03:38.062Z,35.77
2019-05-25T22:06:06.333Z,34.66
2019-05-25T22:08:34.609Z,35.13
2019-05-25T22:11:03.022Z,35.61
2019-05-25T22:13:32.283Z,35.72
2019-05-25T22:16:00.732Z,35.49
2019-05-25T22:18:29.030Z,35.18
2019-05-25T22:20:57.489Z,35.08
2019-05-25T22:23:25.768Z,35.20
2019-05-25T22:25:54.120Z,35.35
2019-05-25T22:28:22.448Z,35.39
2019-05-25T22:30:50.836Z,34.45
2019-05-25T22:33:19.203Z,35.52
2019-05-25T22:35:48.500Z,35.45
2019-05-25T22:38:16.897Z,35.00
2019-05-25T22:40:45.185Z,33.82
2019-05-25T22:43:15.479Z,34.28
2019-05-25T22:45:43.770Z,35.04
2019-05-25T22:48:14.764Z,34.73
2019-05-25T22:50:45.907Z,34.31
2019-05-25T22:53:14.184Z,33.67
2019-05-25T22:55:42.476Z,33.55
2019-05-25T22:58:10.738Z,34.53
2019-05-25T23:00:39.020Z,33.53
2019-05-25T23:03:07.311Z,33.84
2019-05-25T23:05:35.560Z,34.66
2019-05-25T23:08:03.830Z,34.98
2019-05-25T23:10:32.105Z,35.06
2019-05-25T23:13:00.370Z,35.22
2019-05-25T23:15:28.642Z,34.33
2019-05-25T23:17:56.915Z,34.34
2019-05-25T23:20:25.285Z,33.95
2019-05-25T23:22:54.561Z,34.05
2019-05-25T23:25:22.857Z,34.32
2019-05-25T23:27:51.141Z,34.24
2019-05-25T23:30:19.713Z,34.26
2019-05-25T23:32:48.007Z,34.24
2019-05-25T23:35:17.981Z,34.63
2019-05-25T23:37:49.864Z,34.05
2019-05-25T23:40:18.292Z,34.52
2019-05-25T23:42:49.148Z,34.17
2019-05-25T23:45:19.261Z,33.99
2019-05-25T23:47:47.540Z,34.08
2019-05-25T23:50:16.646Z,33.96
2019-05-25T23:52:44.918Z,33.68
2019-05-25T23:55:13.245Z,33.93
2019-05-25T23:57:41.606Z,33.89
